Etusivu
METAR-TAF:

METAR-TAF

Lentoasemat :

Cherokee County Airport

Canton, Georgia, Yhdysvallat

Leveyspiiri: 34-18-38N, Pituuspiiri: 084-25-26W, korkeus merenpinnasta: 372 m

Tämänhetkinen sää

Tämä raportti tehtiin 31 minuuttia sitten, kello 15.55 UTC
tyyntä
Lämpötila 8°C
Kosteus 100%
Ilmanpaine 1024 hPa
Näkyvyys: 2.8 km
Pilvistä 700 ft:n korkeudessa
sadetta

METAR: KCNI 261555Z AUTO 00000KT 1 3/4SM RA OVC007 08/08 A3024 RMK AO2

Aika: 11:26 (16:26 UTC)


TAF: puuttuu

Säähavainnot ja -ennusteet yli 4000 lentoasemalta (METAR- ja TAF-raportit).

Käytössä olevat sääasemat on merkitty karttaan keltaisilla ja punaisilla pisteillä.

Aseta hiiri pisteen päälle nähdäksesi sääaseman nimen.

Klikkaa sitten nähdäksesi säähavainnot ja -ennusteet.

Kartan vaihtaminen: klikkaa mustalla rastilla varustettuja vihreitä pisteitä, niin voit zoomata sisään; viivalla varustettua vihreää pistettä, niin voit zoomata ulos tai vihreitä nuolia, niin pääset viereisille kartoille.


METAR-TAF: